createdAt,value
2022-12-04T00:01:06.000Z,167
2022-12-04T00:02:22.000Z,168
2022-12-04T00:03:38.000Z,169
2022-12-04T00:04:54.000Z,168
2022-12-04T00:06:11.000Z,171
2022-12-04T00:07:27.000Z,170
2022-12-04T00:08:43.000Z,172
2022-12-04T00:09:59.000Z,171
2022-12-04T00:11:15.000Z,169
2022-12-04T00:12:32.000Z,173
2022-12-04T00:13:47.000Z,173
2022-12-04T00:15:03.000Z,171
2022-12-04T00:16:19.000Z,171
2022-12-04T00:17:36.000Z,167
2022-12-04T00:18:52.000Z,165
2022-12-04T00:20:08.000Z,170
2022-12-04T00:21:24.000Z,170
2022-12-04T00:22:41.000Z,167
2022-12-04T00:23:57.000Z,163
2022-12-04T00:25:13.000Z,164
2022-12-04T00:26:29.000Z,164
2022-12-04T00:27:46.000Z,169
2022-12-04T00:29:02.000Z,169
2022-12-04T00:30:17.000Z,170
2022-12-04T00:31:32.000Z,170
2022-12-04T00:32:48.000Z,170
2022-12-04T00:34:03.000Z,168
2022-12-04T00:35:18.000Z,165
2022-12-04T00:36:34.000Z,170
2022-12-04T00:37:50.000Z,170
2022-12-04T00:39:07.000Z,170
2022-12-04T00:40:23.000Z,167
2022-12-04T00:41:39.000Z,166
2022-12-04T00:42:55.000Z,171
2022-12-04T00:44:12.000Z,167
2022-12-04T00:45:28.000Z,169
2022-12-04T00:46:44.000Z,170
2022-12-04T00:48:00.000Z,168
2022-12-04T00:49:17.000Z,170
2022-12-04T00:50:33.000Z,170
2022-12-04T00:51:48.000Z,172
2022-12-04T00:54:21.000Z,173
2022-12-04T00:55:37.000Z,175
2022-12-04T00:56:53.000Z,176
2022-12-04T00:58:09.000Z,172
2022-12-04T00:59:25.000Z,166
2022-12-04T01:00:42.000Z,150
2022-12-04T01:01:57.000Z,151
2022-12-04T01:03:12.000Z,153
2022-12-04T01:04:28.000Z,152
2022-12-04T01:05:43.000Z,148
2022-12-04T01:06:59.000Z,151
2022-12-04T01:08:15.000Z,155
2022-12-04T01:09:31.000Z,163
2022-12-04T01:10:48.000Z,167
2022-12-04T01:12:04.000Z,171
2022-12-04T01:13:20.000Z,169
2022-12-04T01:14:36.000Z,169
2022-12-04T01:15:53.000Z,169
2022-12-04T01:17:09.000Z,171
2022-12-04T01:18:25.000Z,170
2022-12-04T01:19:41.000Z,168
2022-12-04T01:20:58.000Z,168
2022-12-04T01:22:13.000Z,169
2022-12-04T01:23:29.000Z,166
2022-12-04T01:24:45.000Z,171
2022-12-04T01:26:02.000Z,169
2022-12-04T01:27:18.000Z,165
2022-12-04T01:28:34.000Z,167
2022-12-04T01:29:50.000Z,167
2022-12-04T01:31:06.000Z,165
2022-12-04T01:32:23.000Z,165
2022-12-04T01:33:38.000Z,164
2022-12-04T01:34:53.000Z,169
2022-12-04T01:36:09.000Z,168
2022-12-04T01:37:26.000Z,164
2022-12-04T01:38:42.000Z,170
2022-12-04T01:39:57.000Z,168
2022-12-04T01:41:12.000Z,164
2022-12-04T01:42:29.000Z,170
2022-12-04T01:43:45.000Z,170
2022-12-04T01:45:01.000Z,166
2022-12-04T01:46:17.000Z,164
2022-12-04T01:47:34.000Z,168
2022-12-04T01:48:50.000Z,169
2022-12-04T01:50:06.000Z,167
2022-12-04T01:51:22.000Z,169
2022-12-04T01:52:39.000Z,170
2022-12-04T01:53:55.000Z,170
2022-12-04T01:55:11.000Z,167
2022-12-04T01:56:27.000Z,166
2022-12-04T01:57:43.000Z,163
2022-12-04T01:58:59.000Z,167
2022-12-04T02:01:31.000Z,167
2022-12-04T02:02:47.000Z,165
2022-12-04T02:04:04.000Z,167
2022-12-04T02:05:20.000Z,169
2022-12-04T02:06:36.000Z,168
2022-12-04T02:07:51.000Z,170
2022-12-04T02:09:07.000Z,167
2022-12-04T02:10:23.000Z,164
2022-12-04T02:11:39.000Z,169
2022-12-04T02:12:54.000Z,166
2022-12-04T02:14:10.000Z,168
2022-12-04T02:15:26.000Z,166
2022-12-04T02:16:42.000Z,170
2022-12-04T02:17:58.000Z,171
2022-12-04T02:19:15.000Z,165
2022-12-04T02:20:31.000Z,165
2022-12-04T02:21:47.000Z,166
2022-12-04T02:23:03.000Z,163
2022-12-04T02:24:20.000Z,162
2022-12-04T02:25:36.000Z,164
2022-12-04T02:26:52.000Z,170
2022-12-04T02:28:08.000Z,166
2022-12-04T02:29:24.000Z,163
2022-12-04T02:30:40.000Z,166
2022-12-04T02:31:56.000Z,168
2022-12-04T02:33:12.000Z,164
2022-12-04T02:34:28.000Z,168
2022-12-04T02:35:45.000Z,166
2022-12-04T02:37:01.000Z,164
2022-12-04T02:38:17.000Z,167
2022-12-04T02:39:33.000Z,163
2022-12-04T02:40:50.000Z,164
2022-12-04T02:42:06.000Z,164
2022-12-04T02:43:22.000Z,169
2022-12-04T02:44:38.000Z,170
2022-12-04T02:45:55.000Z,167
2022-12-04T02:47:10.000Z,169
2022-12-04T02:48:26.000Z,169
2022-12-04T02:49:42.000Z,170
2022-12-04T02:50:58.000Z,170
2022-12-04T02:52:15.000Z,169
2022-12-04T02:53:31.000Z,169
2022-12-04T02:54:47.000Z,170
2022-12-04T02:56:03.000Z,168
2022-12-04T02:57:20.000Z,164
2022-12-04T02:58:36.000Z,166
2022-12-04T03:01:08.000Z,170
2022-12-04T03:02:25.000Z,167
2022-12-04T03:03:40.000Z,169
2022-12-04T03:04:56.000Z,167
2022-12-04T03:06:11.000Z,165
2022-12-04T03:07:27.000Z,169
2022-12-04T03:08:42.000Z,168
2022-12-04T03:09:57.000Z,166
2022-12-04T03:11:13.000Z,163
2022-12-04T03:12:30.000Z,169
2022-12-04T03:13:46.000Z,171
2022-12-04T03:15:02.000Z,167
2022-12-04T03:16:18.000Z,165
2022-12-04T03:17:35.000Z,166
2022-12-04T03:20:07.000Z,166
2022-12-04T03:21:23.000Z,164
2022-12-04T03:22:39.000Z,163
2022-12-04T03:23:56.000Z,166
2022-12-04T03:25:12.000Z,167
2022-12-04T03:26:27.000Z,164
2022-12-04T03:27:43.000Z,166
2022-12-04T03:29:00.000Z,170
2022-12-04T03:30:16.000Z,166
2022-12-04T03:31:32.000Z,168
2022-12-04T03:32:48.000Z,169
2022-12-04T03:34:05.000Z,165
2022-12-04T03:35:21.000Z,168
2022-12-04T03:36:37.000Z,163
2022-12-04T03:37:53.000Z,163
2022-12-04T03:39:10.000Z,164
2022-12-04T03:40:26.000Z,169
2022-12-04T03:41:42.000Z,168
2022-12-04T03:42:57.000Z,163
2022-12-04T03:45:30.000Z,168
2022-12-04T03:46:46.000Z,169
2022-12-04T03:48:02.000Z,170
2022-12-04T03:49:18.000Z,167
2022-12-04T03:50:35.000Z,169
2022-12-04T03:51:51.000Z,167
2022-12-04T03:53:07.000Z,164
2022-12-04T03:54:23.000Z,167
2022-12-04T03:55:40.000Z,163
2022-12-04T03:56:56.000Z,169
2022-12-04T03:58:12.000Z,169
2022-12-04T03:59:27.000Z,169
2022-12-04T04:00:44.000Z,168
2022-12-04T04:02:00.000Z,164
2022-12-04T04:03:16.000Z,170
2022-12-04T04:04:32.000Z,168
2022-12-04T04:05:48.000Z,170
2022-12-04T04:07:05.000Z,168
2022-12-04T04:08:21.000Z,164
2022-12-04T04:09:37.000Z,168
2022-12-04T04:10:53.000Z,167
2022-12-04T04:12:10.000Z,165
2022-12-04T04:13:26.000Z,169
2022-12-04T04:14:42.000Z,168
2022-12-04T04:15:57.000Z,170
2022-12-04T04:17:14.000Z,167
2022-12-04T04:18:30.000Z,170
2022-12-04T04:19:46.000Z,169
2022-12-04T04:21:02.000Z,168
2022-12-04T04:22:19.000Z,168
2022-12-04T04:23:35.000Z,170
2022-12-04T04:24:51.000Z,169
2022-12-04T04:26:07.000Z,168
2022-12-04T04:27:23.000Z,165
2022-12-04T04:29:56.000Z,169
2022-12-04T04:31:12.000Z,168
2022-12-04T04:32:27.000Z,168
2022-12-04T04:33:44.000Z,167
2022-12-04T04:35:00.000Z,165
2022-12-04T04:36:16.000Z,167
2022-12-04T04:37:32.000Z,165
2022-12-04T04:38:49.000Z,168
2022-12-04T04:40:05.000Z,171
2022-12-04T04:41:21.000Z,168
2022-12-04T04:42:37.000Z,165
2022-12-04T04:43:54.000Z,164
2022-12-04T04:45:10.000Z,167
2022-12-04T04:46:26.000Z,165
2022-12-04T04:47:42.000Z,170
2022-12-04T04:48:57.000Z,170
2022-12-04T04:50:14.000Z,170
2022-12-04T04:51:30.000Z,169
2022-12-04T04:52:46.000Z,168
2022-12-04T04:55:19.000Z,164
2022-12-04T04:56:35.000Z,167
2022-12-04T04:57:51.000Z,164
2022-12-04T04:59:07.000Z,169
2022-12-04T05:00:24.000Z,168
2022-12-04T05:01:40.000Z,167
2022-12-04T05:02:56.000Z,165
2022-12-04T05:04:12.000Z,166
2022-12-04T05:05:29.000Z,164
2022-12-04T05:06:44.000Z,168
2022-12-04T05:08:00.000Z,164
2022-12-04T05:09:16.000Z,170
2022-12-04T05:10:33.000Z,168
2022-12-04T05:11:49.000Z,169
2022-12-04T05:13:05.000Z,165
2022-12-04T05:14:21.000Z,165
2022-12-04T05:15:37.000Z,168
2022-12-04T05:16:54.000Z,170
2022-12-04T05:18:10.000Z,165
2022-12-04T05:19:26.000Z,165
2022-12-04T05:20:42.000Z,165
2022-12-04T05:21:59.000Z,169
2022-12-04T05:23:14.000Z,166
2022-12-04T05:24:29.000Z,164
2022-12-04T05:25:45.000Z,170
2022-12-04T05:27:01.000Z,170
2022-12-04T05:28:16.000Z,169
2022-12-04T05:29:32.000Z,170
2022-12-04T05:30:48.000Z,167
2022-12-04T05:32:05.000Z,166
2022-12-04T05:33:21.000Z,166
2022-12-04T05:34:37.000Z,168
2022-12-04T05:35:53.000Z,164
2022-12-04T05:37:10.000Z,166
2022-12-04T05:38:26.000Z,166
2022-12-04T05:39:42.000Z,165
2022-12-04T05:40:58.000Z,168
2022-12-04T05:42:14.000Z,165
2022-12-04T05:43:31.000Z,168
2022-12-04T05:46:02.000Z,168
2022-12-04T05:47:18.000Z,162
2022-12-04T05:48:35.000Z,166
2022-12-04T05:49:51.000Z,167
2022-12-04T05:51:07.000Z,168
2022-12-04T05:52:23.000Z,165
2022-12-04T05:53:40.000Z,167
2022-12-04T05:54:55.000Z,165
2022-12-04T05:56:10.000Z,170
2022-12-04T05:57:26.000Z,170
2022-12-04T05:58:43.000Z,168
2022-12-04T05:59:59.000Z,169
2022-12-04T06:01:14.000Z,170
2022-12-04T06:02:29.000Z,168
2022-12-04T06:03:46.000Z,166
2022-12-04T06:05:02.000Z,164
2022-12-04T06:06:18.000Z,163
2022-12-04T06:07:34.000Z,166
2022-12-04T06:08:50.000Z,170
2022-12-04T06:10:07.000Z,170
2022-12-04T06:11:23.000Z,170
2022-12-04T06:12:39.000Z,168
2022-12-04T06:13:55.000Z,163
2022-12-04T06:15:12.000Z,164
2022-12-04T06:16:28.000Z,165
2022-12-04T06:17:44.000Z,164
2022-12-04T06:18:59.000Z,171
2022-12-04T06:20:16.000Z,167
2022-12-04T06:21:32.000Z,164
2022-12-04T06:22:48.000Z,164
2022-12-04T06:24:04.000Z,170
2022-12-04T06:25:21.000Z,169
2022-12-04T06:26:37.000Z,166
2022-12-04T06:27:53.000Z,168
2022-12-04T06:29:09.000Z,169
2022-12-04T06:30:26.000Z,169
2022-12-04T06:31:42.000Z,170
2022-12-04T06:32:58.000Z,170
2022-12-04T06:34:14.000Z,170
2022-12-04T06:36:46.000Z,165
2022-12-04T06:38:02.000Z,170
2022-12-04T06:39:18.000Z,166
2022-12-04T06:40:34.000Z,165
2022-12-04T06:41:51.000Z,169
2022-12-04T06:43:07.000Z,168
2022-12-04T06:44:23.000Z,170
2022-12-04T06:45:38.000Z,171
2022-12-04T06:46:55.000Z,167
2022-12-04T06:48:11.000Z,169
2022-12-04T06:49:27.000Z,169
2022-12-04T06:50:43.000Z,168
2022-12-04T06:52:00.000Z,169
2022-12-04T06:53:16.000Z,167
2022-12-04T06:54:32.000Z,171
2022-12-04T06:55:48.000Z,167
2022-12-04T06:57:04.000Z,170
2022-12-04T06:58:21.000Z,174
2022-12-04T06:59:37.000Z,173
2022-12-04T07:00:53.000Z,175
2022-12-04T07:02:08.000Z,172
2022-12-04T07:03:25.000Z,176
2022-12-04T07:04:41.000Z,179
2022-12-04T07:05:57.000Z,183
2022-12-04T07:07:13.000Z,183
2022-12-04T07:08:30.000Z,187
2022-12-04T07:09:46.000Z,194
2022-12-04T07:11:02.000Z,194
2022-12-04T07:12:18.000Z,197
2022-12-04T07:13:35.000Z,198
2022-12-04T07:14:51.000Z,200
2022-12-04T07:16:07.000Z,202
2022-12-04T07:17:23.000Z,204
2022-12-04T07:18:38.000Z,206
2022-12-04T07:19:54.000Z,210
2022-12-04T07:21:09.000Z,214
2022-12-04T07:22:24.000Z,218
2022-12-04T07:23:40.000Z,222
2022-12-04T07:24:56.000Z,228
2022-12-04T07:26:12.000Z,233
2022-12-04T07:27:28.000Z,240
2022-12-04T07:28:44.000Z,244
2022-12-04T07:30:01.000Z,256
2022-12-04T07:31:17.000Z,266
2022-12-04T07:32:33.000Z,271
2022-12-04T07:33:49.000Z,274
2022-12-04T07:35:06.000Z,290
2022-12-04T07:36:22.000Z,290
2022-12-04T07:37:38.000Z,293
2022-12-04T07:40:11.000Z,310
2022-12-04T07:41:26.000Z,324
2022-12-04T07:42:42.000Z,338
2022-12-04T07:43:58.000Z,335
2022-12-04T07:45:15.000Z,355
2022-12-04T07:46:31.000Z,373
2022-12-04T07:47:47.000Z,381
2022-12-04T07:49:03.000Z,388
2022-12-04T07:50:18.000Z,392
2022-12-04T07:51:34.000Z,403
2022-12-04T07:52:50.000Z,425
2022-12-04T07:54:06.000Z,457
2022-12-04T07:55:21.000Z,470
2022-12-04T07:56:37.000Z,504
2022-12-04T07:57:53.000Z,538
2022-12-04T07:59:09.000Z,558
2022-12-04T08:00:25.000Z,570
2022-12-04T08:01:42.000Z,596
2022-12-04T08:02:58.000Z,585
2022-12-04T08:04:14.000Z,614
2022-12-04T08:05:30.000Z,609
2022-12-04T08:06:47.000Z,611
2022-12-04T08:08:03.000Z,610
2022-12-04T08:09:19.000Z,585
2022-12-04T08:10:35.000Z,588
2022-12-04T08:11:52.000Z,599
2022-12-04T08:13:07.000Z,610
2022-12-04T08:14:23.000Z,622
2022-12-04T08:15:39.000Z,609
2022-12-04T08:18:12.000Z,690
2022-12-04T08:19:28.000Z,683
2022-12-04T08:20:44.000Z,694
2022-12-04T08:22:00.000Z,702
2022-12-04T08:23:17.000Z,707
2022-12-04T08:24:33.000Z,755
2022-12-04T08:25:49.000Z,732
2022-12-04T08:27:05.000Z,731
2022-12-04T08:28:22.000Z,762
2022-12-04T08:29:37.000Z,780
2022-12-04T08:30:53.000Z,827
2022-12-04T08:32:09.000Z,816
2022-12-04T08:33:26.000Z,805
2022-12-04T08:34:42.000Z,770
2022-12-04T08:35:58.000Z,854
2022-12-04T08:37:14.000Z,960
2022-12-04T08:38:30.000Z,884
2022-12-04T08:39:47.000Z,947
2022-12-04T08:41:03.000Z,855
2022-12-04T08:42:19.000Z,976
2022-12-04T08:43:35.000Z,926
2022-12-04T08:44:52.000Z,904
2022-12-04T08:46:07.000Z,964
2022-12-04T08:47:23.000Z,1045
2022-12-04T08:48:39.000Z,904
2022-12-04T08:49:56.000Z,1050
2022-12-04T08:51:12.000Z,931
2022-12-04T08:52:28.000Z,946
2022-12-04T08:53:43.000Z,1018
2022-12-04T08:54:59.000Z,1083
2022-12-04T08:56:15.000Z,1149
2022-12-04T08:57:31.000Z,1129
2022-12-04T08:58:46.000Z,1048
2022-12-04T09:00:02.000Z,1209
2022-12-04T09:01:18.000Z,1138
2022-12-04T09:02:34.000Z,1068
2022-12-04T09:03:50.000Z,1145
2022-12-04T09:05:07.000Z,1100
2022-12-04T09:06:23.000Z,1325
2022-12-04T09:08:55.000Z,1156
2022-12-04T09:10:11.000Z,1341
2022-12-04T09:11:28.000Z,1273
2022-12-04T09:12:44.000Z,1199
2022-12-04T09:14:00.000Z,1369
2022-12-04T09:15:16.000Z,1293
2022-12-04T09:16:32.000Z,1193
2022-12-04T09:17:48.000Z,1344
2022-12-04T09:19:04.000Z,1298
2022-12-04T09:20:20.000Z,1323
2022-12-04T09:21:37.000Z,1368
2022-12-04T09:22:53.000Z,1327
2022-12-04T09:24:09.000Z,1312
2022-12-04T09:25:25.000Z,1222
2022-12-04T09:26:42.000Z,1305
2022-12-04T09:27:58.000Z,1223
2022-12-04T09:29:14.000Z,1141
2022-12-04T09:30:30.000Z,1068
2022-12-04T09:31:46.000Z,1033
2022-12-04T09:33:02.000Z,1022
2022-12-04T09:34:18.000Z,1116
2022-12-04T09:35:34.000Z,1402
2022-12-04T09:36:50.000Z,1398
2022-12-04T09:38:07.000Z,1339
2022-12-04T09:39:23.000Z,1243
2022-12-04T09:40:39.000Z,1373
2022-12-04T09:41:55.000Z,1424
2022-12-04T09:43:12.000Z,1298
2022-12-04T09:44:28.000Z,1415
2022-12-04T09:47:00.000Z,1479
2022-12-04T09:48:17.000Z,1503
2022-12-04T09:49:32.000Z,1512
2022-12-04T09:50:48.000Z,1462
2022-12-04T09:52:04.000Z,1385
2022-12-04T09:53:20.000Z,1681
2022-12-04T09:54:37.000Z,1672
2022-12-04T09:55:53.000Z,1889
2022-12-04T09:57:09.000Z,1937
2022-12-04T09:58:25.000Z,2047
2022-12-04T09:59:42.000Z,1843
2022-12-04T10:00:58.000Z,2012
2022-12-04T10:02:14.000Z,1709
2022-12-04T10:03:30.000Z,1883
2022-12-04T10:04:47.000Z,1911
2022-12-04T10:06:02.000Z,1926
2022-12-04T10:07:18.000Z,2023
2022-12-04T10:08:34.000Z,1801
2022-12-04T10:09:51.000Z,2068
2022-12-04T10:11:07.000Z,1942
2022-12-04T10:12:23.000Z,1912
2022-12-04T10:13:39.000Z,2189
2022-12-04T10:14:55.000Z,2256
2022-12-04T10:16:12.000Z,2276
2022-12-04T10:17:28.000Z,2290
2022-12-04T10:18:44.000Z,2125
2022-12-04T10:20:00.000Z,2170
2022-12-04T10:21:17.000Z,1978
2022-12-04T10:22:32.000Z,2237
2022-12-04T10:25:04.000Z,2118
2022-12-04T10:26:21.000Z,2043
2022-12-04T10:27:36.000Z,2188
2022-12-04T10:28:51.000Z,2183
2022-12-04T10:30:06.000Z,1974
2022-12-04T10:31:22.000Z,2163
2022-12-04T10:32:38.000Z,2019
2022-12-04T10:33:54.000Z,2388
2022-12-04T10:35:10.000Z,2047
2022-12-04T10:36:27.000Z,2438
2022-12-04T10:37:43.000Z,2428
2022-12-04T10:38:59.000Z,2542
2022-12-04T10:40:15.000Z,2493
2022-12-04T10:41:31.000Z,2172
2022-12-04T10:42:48.000Z,2430
2022-12-04T10:44:04.000Z,2205
2022-12-04T10:45:20.000Z,2010
2022-12-04T10:46:36.000Z,2249
2022-12-04T10:47:52.000Z,2002
2022-12-04T10:49:08.000Z,2142
2022-12-04T10:50:24.000Z,1906
2022-12-04T10:51:40.000Z,2127
2022-12-04T10:52:57.000Z,1925
2022-12-04T10:54:13.000Z,1826
2022-12-04T10:55:29.000Z,2074
2022-12-04T10:56:45.000Z,2229
2022-12-04T10:58:02.000Z,2404
2022-12-04T10:59:18.000Z,1905
2022-12-04T11:00:33.000Z,2284
2022-12-04T11:01:49.000Z,2466
2022-12-04T11:03:06.000Z,2249
2022-12-04T11:04:22.000Z,2196
2022-12-04T11:05:38.000Z,2226
2022-12-04T11:06:54.000Z,2119
2022-12-04T11:08:10.000Z,2148
2022-12-04T11:09:27.000Z,2005
2022-12-04T11:10:43.000Z,2171
2022-12-04T11:11:59.000Z,2141
2022-12-04T11:13:15.000Z,1795
2022-12-04T11:14:32.000Z,2446
2022-12-04T11:15:48.000Z,2208
2022-12-04T11:17:03.000Z,2427
2022-12-04T11:18:19.000Z,2422
2022-12-04T11:19:36.000Z,2451
2022-12-04T11:20:52.000Z,2771
2022-12-04T11:22:08.000Z,2521
2022-12-04T11:23:24.000Z,2530
2022-12-04T11:24:41.000Z,2754
2022-12-04T11:25:57.000Z,2496
2022-12-04T11:27:13.000Z,2600
2022-12-04T11:28:29.000Z,2432
2022-12-04T11:29:45.000Z,2565
2022-12-04T11:31:02.000Z,2392
2022-12-04T11:32:18.000Z,2368
2022-12-04T11:33:33.000Z,2750
2022-12-04T11:34:49.000Z,2512
2022-12-04T11:36:06.000Z,2531
2022-12-04T11:37:22.000Z,2797
2022-12-04T11:38:38.000Z,2675
2022-12-04T11:39:54.000Z,2800
2022-12-04T11:41:11.000Z,2722
2022-12-04T11:42:27.000Z,2626
2022-12-04T11:43:43.000Z,2690
2022-12-04T11:44:59.000Z,2395
2022-12-04T11:46:16.000Z,2625
2022-12-04T11:47:32.000Z,2747
2022-12-04T11:48:48.000Z,2683
2022-12-04T11:50:03.000Z,2789
2022-12-04T11:51:19.000Z,2705
2022-12-04T11:53:52.000Z,2340
2022-12-04T11:55:08.000Z,2655
2022-12-04T11:56:24.000Z,2311
2022-12-04T11:57:41.000Z,2584
2022-12-04T11:58:56.000Z,2552
2022-12-04T12:00:11.000Z,2825
2022-12-04T12:01:26.000Z,2741
2022-12-04T12:02:42.000Z,2793
2022-12-04T12:03:58.000Z,2381
2022-12-04T12:06:30.000Z,2552
2022-12-04T12:07:47.000Z,2464
2022-12-04T12:09:03.000Z,2458
2022-12-04T12:10:19.000Z,1843
2022-12-04T12:11:35.000Z,2455
2022-12-04T12:12:52.000Z,2276
2022-12-04T12:14:08.000Z,2168
2022-12-04T12:15:24.000Z,1904
2022-12-04T12:16:40.000Z,1772
2022-12-04T12:17:56.000Z,1923
2022-12-04T12:19:12.000Z,1715
2022-12-04T12:20:28.000Z,2066
2022-12-04T12:21:44.000Z,1906
2022-12-04T12:23:00.000Z,1587
2022-12-04T12:24:17.000Z,1728
2022-12-04T12:25:33.000Z,1805
2022-12-04T12:26:49.000Z,1838
2022-12-04T12:28:05.000Z,1751
2022-12-04T12:29:21.000Z,2125
2022-12-04T12:31:52.000Z,1921
2022-12-04T12:33:08.000Z,2110
2022-12-04T12:35:40.000Z,2151
2022-12-04T12:36:55.000Z,2057
2022-12-04T12:38:11.000Z,2358
2022-12-04T12:39:28.000Z,1901
2022-12-04T12:40:44.000Z,1926
2022-12-04T12:42:00.000Z,1959
2022-12-04T12:43:16.000Z,1983
2022-12-04T12:44:33.000Z,1841
2022-12-04T12:45:49.000Z,1808
2022-12-04T12:47:05.000Z,1503
2022-12-04T12:48:21.000Z,1739
2022-12-04T12:49:38.000Z,1826
2022-12-04T12:52:10.000Z,1410
2022-12-04T12:53:26.000Z,1634
2022-12-04T12:54:42.000Z,1465
2022-12-04T12:55:58.000Z,1703
2022-12-04T12:57:14.000Z,1520
2022-12-04T12:58:30.000Z,1192
2022-12-04T12:59:46.000Z,1157
2022-12-04T13:01:03.000Z,1470
2022-12-04T13:02:19.000Z,1451
2022-12-04T13:03:35.000Z,1546
2022-12-04T13:04:51.000Z,1283
2022-12-04T13:06:08.000Z,1282
2022-12-04T13:07:24.000Z,1112
2022-12-04T13:09:56.000Z,1382
2022-12-04T13:11:12.000Z,1426
2022-12-04T13:12:28.000Z,1280
2022-12-04T13:13:44.000Z,1209
2022-12-04T13:15:00.000Z,1229
2022-12-04T13:16:17.000Z,1548
2022-12-04T13:17:33.000Z,1398
2022-12-04T13:18:49.000Z,1277
2022-12-04T13:20:05.000Z,1099
2022-12-04T13:21:21.000Z,1208
2022-12-04T13:22:38.000Z,1187
2022-12-04T13:23:54.000Z,1190
2022-12-04T13:25:10.000Z,1304
2022-12-04T13:26:26.000Z,1165
2022-12-04T13:27:42.000Z,1176
2022-12-04T13:28:58.000Z,1145
2022-12-04T13:30:14.000Z,1018
2022-12-04T13:31:30.000Z,1142
2022-12-04T13:32:47.000Z,1013
2022-12-04T13:34:03.000Z,1152
2022-12-04T13:35:19.000Z,986
2022-12-04T13:36:35.000Z,1112
2022-12-04T13:37:52.000Z,1099
2022-12-04T13:39:08.000Z,1204
2022-12-04T13:40:24.000Z,1051
2022-12-04T13:41:40.000Z,1132
2022-12-04T13:42:56.000Z,1141
2022-12-04T13:44:12.000Z,1190
2022-12-04T13:45:28.000Z,1063
2022-12-04T13:46:44.000Z,1257
2022-12-04T13:48:00.000Z,1286
2022-12-04T13:49:17.000Z,1320
2022-12-04T13:50:33.000Z,1464
2022-12-04T13:51:49.000Z,1192
2022-12-04T13:53:05.000Z,1085
2022-12-04T13:54:22.000Z,1106
2022-12-04T13:55:38.000Z,1154
2022-12-04T13:56:54.000Z,1189
2022-12-04T13:58:10.000Z,1259
2022-12-04T14:00:43.000Z,1146
2022-12-04T14:01:58.000Z,1036
2022-12-04T14:03:14.000Z,1101
2022-12-04T14:04:30.000Z,1103
2022-12-04T14:05:47.000Z,896
2022-12-04T14:07:03.000Z,1025
2022-12-04T14:08:19.000Z,977
2022-12-04T14:09:35.000Z,1060
2022-12-04T14:10:52.000Z,995
2022-12-04T14:12:08.000Z,902
2022-12-04T14:13:24.000Z,1005
2022-12-04T14:14:40.000Z,899
2022-12-04T14:15:57.000Z,982
2022-12-04T14:17:13.000Z,841
2022-12-04T14:18:28.000Z,937
2022-12-04T14:19:44.000Z,858
2022-12-04T14:21:01.000Z,807
2022-12-04T14:22:17.000Z,768
2022-12-04T14:23:33.000Z,782
2022-12-04T14:24:49.000Z,741
2022-12-04T14:26:05.000Z,682
2022-12-04T14:27:22.000Z,745
2022-12-04T14:28:38.000Z,715
2022-12-04T14:29:54.000Z,637
2022-12-04T14:31:10.000Z,605
2022-12-04T14:33:43.000Z,547
2022-12-04T14:34:58.000Z,539
2022-12-04T14:36:14.000Z,501
2022-12-04T14:37:31.000Z,483
2022-12-04T14:38:47.000Z,491
2022-12-04T14:40:03.000Z,498
2022-12-04T14:41:19.000Z,482
2022-12-04T14:42:36.000Z,429
2022-12-04T14:43:52.000Z,404
2022-12-04T14:45:08.000Z,384
2022-12-04T14:46:24.000Z,372
2022-12-04T14:47:40.000Z,401
2022-12-04T14:48:56.000Z,385
2022-12-04T14:50:11.000Z,371
2022-12-04T14:51:27.000Z,383
2022-12-04T14:52:43.000Z,359
2022-12-04T14:53:59.000Z,356
2022-12-04T14:55:14.000Z,369
2022-12-04T14:56:30.000Z,370
2022-12-04T14:57:46.000Z,350
2022-12-04T14:59:03.000Z,314
2022-12-04T15:00:19.000Z,291
2022-12-04T15:01:35.000Z,280
2022-12-04T15:02:51.000Z,277
2022-12-04T15:04:08.000Z,276
2022-12-04T15:05:24.000Z,279
2022-12-04T15:06:40.000Z,271
2022-12-04T15:07:56.000Z,280
2022-12-04T15:09:13.000Z,270
2022-12-04T15:10:29.000Z,244
2022-12-04T15:11:44.000Z,239
2022-12-04T15:13:00.000Z,236
2022-12-04T15:14:17.000Z,236
2022-12-04T15:16:48.000Z,232
2022-12-04T15:18:03.000Z,223
2022-12-04T15:19:20.000Z,215
2022-12-04T15:20:36.000Z,218
2022-12-04T15:21:51.000Z,218
2022-12-04T15:23:06.000Z,216
2022-12-04T15:24:22.000Z,208
2022-12-04T15:25:37.000Z,198
2022-12-04T15:26:53.000Z,195
2022-12-04T15:28:09.000Z,194
2022-12-04T15:29:25.000Z,199
2022-12-04T15:30:42.000Z,190
2022-12-04T15:31:58.000Z,183
2022-12-04T15:33:14.000Z,182
2022-12-04T15:34:30.000Z,187
2022-12-04T15:35:47.000Z,180
2022-12-04T15:37:03.000Z,182
2022-12-04T15:38:19.000Z,176
2022-12-04T15:39:35.000Z,175
2022-12-04T15:42:08.000Z,171
2022-12-04T15:43:23.000Z,177
2022-12-04T15:44:39.000Z,174
2022-12-04T15:45:56.000Z,173
2022-12-04T15:47:12.000Z,166
2022-12-04T15:48:28.000Z,172
2022-12-04T15:49:44.000Z,169
2022-12-04T15:51:00.000Z,174
2022-12-04T15:52:16.000Z,166
2022-12-04T15:54:47.000Z,170
2022-12-04T15:56:03.000Z,171
2022-12-04T15:57:19.000Z,170
2022-12-04T15:58:34.000Z,170
2022-12-04T15:59:50.000Z,171
2022-12-04T16:01:06.000Z,168
2022-12-04T16:02:23.000Z,170
2022-12-04T16:03:39.000Z,168
2022-12-04T16:04:55.000Z,172
2022-12-04T16:06:11.000Z,170
2022-12-04T16:07:28.000Z,171
2022-12-04T16:08:44.000Z,169
2022-12-04T16:10:00.000Z,167
2022-12-04T16:11:16.000Z,168
2022-12-04T16:12:33.000Z,169
2022-12-04T16:13:49.000Z,171
2022-12-04T16:15:04.000Z,172
2022-12-04T16:16:20.000Z,170
2022-12-04T16:17:37.000Z,169
2022-12-04T16:20:09.000Z,169
2022-12-04T16:21:25.000Z,171
2022-12-04T16:22:41.000Z,166
2022-12-04T16:23:58.000Z,167
2022-12-04T16:25:14.000Z,170
2022-12-04T16:26:30.000Z,171
2022-12-04T16:27:46.000Z,170
2022-12-04T16:29:03.000Z,170
2022-12-04T16:30:19.000Z,169
2022-12-04T16:31:34.000Z,168
2022-12-04T16:32:50.000Z,170
2022-12-04T16:34:07.000Z,170
2022-12-04T16:35:23.000Z,168
2022-12-04T16:36:39.000Z,171
2022-12-04T16:37:55.000Z,169
2022-12-04T16:39:12.000Z,167
2022-12-04T16:40:28.000Z,171
2022-12-04T16:41:44.000Z,172
2022-12-04T16:43:00.000Z,167
2022-12-04T16:44:16.000Z,166
2022-12-04T16:45:33.000Z,167
2022-12-04T16:46:49.000Z,165
2022-12-04T16:48:04.000Z,170
2022-12-04T16:49:20.000Z,171
2022-12-04T16:50:37.000Z,167
2022-12-04T16:51:53.000Z,170
2022-12-04T16:53:09.000Z,168
2022-12-04T16:54:25.000Z,162
2022-12-04T16:55:42.000Z,166
2022-12-04T16:56:58.000Z,168
2022-12-04T16:58:14.000Z,168
2022-12-04T16:59:30.000Z,167
2022-12-04T17:00:47.000Z,166
2022-12-04T17:02:03.000Z,163
2022-12-04T17:03:19.000Z,165
2022-12-04T17:04:34.000Z,169
2022-12-04T17:05:50.000Z,170
2022-12-04T17:07:07.000Z,168
2022-12-04T17:08:23.000Z,168
2022-12-04T17:09:39.000Z,167
2022-12-04T17:10:55.000Z,165
2022-12-04T17:12:12.000Z,169
2022-12-04T17:13:28.000Z,169
2022-12-04T17:14:44.000Z,167
2022-12-04T17:16:00.000Z,165
2022-12-04T17:17:17.000Z,165
2022-12-04T17:18:33.000Z,170
2022-12-04T17:19:49.000Z,169
2022-12-04T17:21:04.000Z,171
2022-12-04T17:23:37.000Z,167
2022-12-04T17:24:53.000Z,170
2022-12-04T17:26:09.000Z,171
2022-12-04T17:27:25.000Z,167
2022-12-04T17:28:42.000Z,169
2022-12-04T17:29:58.000Z,166
2022-12-04T17:31:14.000Z,166
2022-12-04T17:32:30.000Z,169
2022-12-04T17:33:47.000Z,166
2022-12-04T17:36:19.000Z,169
2022-12-04T17:37:34.000Z,170
2022-12-04T17:38:51.000Z,167
2022-12-04T17:40:07.000Z,164
2022-12-04T17:41:23.000Z,171
2022-12-04T17:42:39.000Z,170
2022-12-04T17:43:56.000Z,166
2022-12-04T17:45:12.000Z,171
2022-12-04T17:46:28.000Z,169
2022-12-04T17:47:44.000Z,165
2022-12-04T17:49:00.000Z,163
2022-12-04T17:50:17.000Z,150
2022-12-04T17:51:33.000Z,148
2022-12-04T17:52:49.000Z,151